Time;durP1;ratioP1;P1;durP2;ratioP2;P2;SDS_P1;SDS_P2;PMS_P1;PMS_P2;Temp;Humidity;BMP_temperature;BMP_pressure;BME280_temperature;BME280_humidity;BME280_pressure;Samples;Min_cycle;Max_cycle;Signal;HPM_P1;HPM_P2
2021/03/29 00:01:56;;;;;;;9.60;6.32;;;9.20;99.90;;;;;;5091109;28;20032;-78
2021/03/29 00:04:23;;;;;;;8.68;5.82;;;9.40;99.90;;;;;;5091971;28;20016;-78
2021/03/29 00:06:51;;;;;;;11.32;5.53;;;9.40;99.90;;;;;;5084359;28;20029;-78
2021/03/29 00:09:17;;;;;;;6.78;5.40;;;9.10;99.90;;;;;;5083574;28;20392;-78
2021/03/29 00:11:43;;;;;;;10.63;5.88;;;9.10;99.90;;;;;;5096148;28;20020;-78
2021/03/29 00:14:11;;;;;;;10.93;6.72;;;9.20;99.90;;;;;;5093229;28;20490;-78
2021/03/29 00:16:37;;;;;;;10.27;6.35;;;9.30;99.90;;;;;;5082333;28;20028;-78
2021/03/29 00:19:07;;;;;;;7.63;5.88;;;9.10;99.90;;;;;;5095475;28;20453;-78
2021/03/29 00:21:33;;;;;;;8.73;6.05;;;9.10;99.90;;;;;;5087385;28;20020;-78
2021/03/29 00:23:59;;;;;;;7.32;6.20;;;9.60;99.90;;;;;;5094920;28;20035;-78
2021/03/29 00:26:25;;;;;;;9.93;6.20;;;9.60;99.90;;;;;;5091742;28;20481;-78
2021/03/29 00:28:51;;;;;;;9.15;5.78;;;9.50;99.90;;;;;;5083328;28;20020;-78
2021/03/29 00:31:17;;;;;;;7.20;4.78;;;9.00;99.90;;;;;;5084632;28;20035;-78
2021/03/29 00:33:43;;;;;;;9.45;5.63;;;8.90;99.90;;;;;;5090706;28;20110;-78
2021/03/29 00:36:10;;;;;;;8.88;5.38;;;9.00;99.90;;;;;;5078998;28;20046;-78
2021/03/29 00:38:37;;;;;;;10.93;5.38;;;9.00;99.90;;;;;;5095539;28;20015;-78
2021/03/29 00:41:09;;;;;;;9.30;5.32;;;9.00;99.90;;;;;;5085401;28;20491;-78
2021/03/29 00:43:37;;;;;;;7.75;5.38;;;9.10;99.90;;;;;;5089043;28;20020;-78
2021/03/29 00:46:05;;;;;;;7.72;5.40;;;9.20;99.90;;;;;;5078616;28;20476;-78
2021/03/29 00:48:33;;;;;;;9.30;5.20;;;9.60;99.90;;;;;;5091326;28;20013;-78
2021/03/29 00:51:15;;;;;;;7.82;5.25;;;9.20;99.90;;;;;;5083864;28;20120;-78
2021/03/29 00:53:51;;;;;;;9.93;5.45;;;9.20;99.90;;;;;;5095205;28;20500;-79
2021/03/29 00:56:18;;;;;;;7.35;5.38;;;9.30;99.90;;;;;;5078680;28;20097;-79
2021/03/29 00:58:46;;;;;;;8.82;5.57;;;9.70;99.90;;;;;;5089014;28;20021;-79
2021/03/29 01:01:19;;;;;;;7.63;5.00;;;9.20;99.90;;;;;;5085351;28;20082;-79
2021/03/29 01:03:54;;;;;;;6.93;4.90;;;9.50;99.90;;;;;;5094997;28;20028;-79
2021/03/29 01:06:23;;;;;;;10.15;4.88;;;9.20;99.90;;;;;;5094410;28;20488;-79
2021/03/29 01:09:05;;;;;;;9.85;5.00;;;9.30;99.90;;;;;;5088753;28;20614;-79
2021/03/29 01:11:36;;;;;;;6.50;4.90;;;9.20;99.90;;;;;;5090918;28;20477;-79
2021/03/29 01:14:03;;;;;;;8.15;5.20;;;9.20;99.90;;;;;;5091032;28;20365;-79
2021/03/29 01:16:35;;;;;;;7.40;5.15;;;9.20;99.90;;;;;;5077310;28;20016;-79
2021/03/29 01:19:05;;;;;;;7.40;4.90;;;9.10;99.90;;;;;;5087042;28;20107;-79
2021/03/29 01:21:43;;;;;;;8.57;5.03;;;9.00;99.90;;;;;;5086777;28;20480;-79
2021/03/29 01:24:29;;;;;;;7.43;4.88;;;8.90;99.90;;;;;;5093508;28;20028;-79
2021/03/29 01:26:56;;;;;;;6.30;5.00;;;9.10;99.90;;;;;;5081462;28;20028;-79
2021/03/29 01:29:30;;;;;;;7.55;5.13;;;8.90;99.90;;;;;;5082609;28;20123;-79
2021/03/29 01:32:05;;;;;;;9.73;5.00;;;8.80;99.90;;;;;;5090288;28;20024;-79
2021/03/29 01:34:37;;;;;;;7.97;5.18;;;8.70;99.90;;;;;;5078114;28;20018;-78
2021/03/29 01:37:04;;;;;;;6.30;4.50;;;8.60;99.90;;;;;;5093358;28;20024;-78
2021/03/29 01:39:31;;;;;;;7.47;5.25;;;8.70;99.90;;;;;;5092777;28;20034;-78
2021/03/29 01:41:58;;;;;;;6.47;4.93;;;8.80;99.90;;;;;;5079054;28;20029;-78
2021/03/29 01:44:25;;;;;;;7.65;4.95;;;8.80;99.90;;;;;;5090849;28;21277;-78
2021/03/29 01:46:51;;;;;;;9.73;5.25;;;8.80;99.90;;;;;;5080319;28;20020;-78
2021/03/29 01:49:19;;;;;;;7.35;4.70;;;8.50;99.90;;;;;;5084661;28;20082;-78
2021/03/29 01:51:45;;;;;;;6.68;5.22;;;8.40;99.90;;;;;;5087862;28;20012;-78
2021/03/29 01:54:14;;;;;;;6.45;5.00;;;8.20;99.90;;;;;;5077323;28;20070;-78
2021/03/29 01:56:40;;;;;;;7.03;5.07;;;8.10;99.90;;;;;;5078175;28;20076;-78
2021/03/29 01:59:05;;;;;;;8.68;4.85;;;8.10;99.90;;;;;;5086371;28;20032;-78
2021/03/29 02:01:31;;;;;;;5.70;4.50;;;8.40;99.90;;;;;;5085274;28;20111;-78
2021/03/29 02:03:57;;;;;;;9.90;5.30;;;8.10;99.90;;;;;;5079150;28;20032;-78
2021/03/29 02:06:24;;;;;;;6.18;4.70;;;8.20;99.90;;;;;;5090488;28;20454;-78
2021/03/29 02:08:51;;;;;;;6.20;4.18;;;8.20;99.90;;;;;;5079348;28;20492;-78
2021/03/29 02:11:17;;;;;;;6.53;4.43;;;8.20;99.90;;;;;;5093469;28;20567;-78
2021/03/29 02:13:47;;;;;;;6.90;4.20;;;7.90;99.90;;;;;;5093656;28;20077;-78
2021/03/29 02:16:14;;;;;;;5.32;4.05;;;8.00;99.90;;;;;;5076910;28;20103;-78
2021/03/29 02:18:45;;;;;;;7.30;4.50;;;8.20;99.90;;;;;;5090032;28;20039;-78
2021/03/29 02:21:22;;;;;;;7.57;4.22;;;8.00;99.90;;;;;;5081463;28;20126;-78
2021/03/29 02:23:50;;;;;;;10.77;4.63;;;8.10;99.90;;;;;;5093435;28;20039;-78
2021/03/29 02:26:19;;;;;;;5.85;4.10;;;8.40;99.90;;;;;;5092738;28;20024;-78
2021/03/29 02:28:45;;;;;;;7.07;4.30;;;8.20;99.90;;;;;;5089284;28;20150;-78
2021/03/29 02:31:12;;;;;;;6.80;4.03;;;8.30;99.90;;;;;;5081743;28;20020;-78
2021/03/29 02:33:39;;;;;;;6.95;4.47;;;8.10;99.90;;;;;;5081120;28;20060;-78
2021/03/29 02:36:06;;;;;;;8.55;4.53;;;8.00;99.90;;;;;;5088881;28;20016;-78
2021/03/29 02:38:32;;;;;;;7.63;4.25;;;8.10;99.90;;;;;;5085570;28;20384;-78
2021/03/29 02:40:58;;;;;;;6.38;4.00;;;8.50;99.90;;;;;;5093376;28;20020;-78
2021/03/29 02:43:25;;;;;;;6.75;4.22;;;7.90;99.90;;;;;;5084552;28;20481;-78
2021/03/29 02:45:54;;;;;;;7.47;4.18;;;8.10;99.90;;;;;;5090155;28;20082;-78
2021/03/29 02:48:24;;;;;;;8.15;4.18;;;7.80;99.90;;;;;;5090498;28;20039;-78
2021/03/29 02:50:51;;;;;;;7.22;4.28;;;7.80;99.90;;;;;;5092253;28;20233;-78
2021/03/29 02:53:20;;;;;;;4.95;4.07;;;8.10;99.90;;;;;;5091797;28;20016;-78
2021/03/29 02:55:47;;;;;;;6.30;4.35;;;7.90;99.90;;;;;;5091724;28;20016;-78
2021/03/29 02:58:15;;;;;;;7.35;4.63;;;7.70;99.90;;;;;;5091990;28;20024;-78
2021/03/29 03:00:41;;;;;;;8.77;4.72;;;7.70;99.90;;;;;;5091277;28;20028;-78
2021/03/29 03:03:08;;;;;;;5.88;4.18;;;8.00;99.90;;;;;;5091545;28;20073;-78
2021/03/29 03:05:36;;;;;;;7.72;4.53;;;8.10;99.90;;;;;;5092522;28;20099;-78
2021/03/29 03:08:04;;;;;;;6.95;4.28;;;7.60;99.90;;;;;;5092718;28;20024;-78
2021/03/29 03:10:31;;;;;;;6.75;4.20;;;7.40;99.90;;;;;;5092292;28;20022;-78
2021/03/29 03:12:58;;;;;;;7.18;4.50;;;7.60;99.90;;;;;;5091614;28;20023;-78
2021/03/29 03:15:26;;;;;;;6.53;4.53;;;7.50;99.90;;;;;;5092552;28;20043;-78
2021/03/29 03:17:53;;;;;;;6.50;3.75;;;7.80;99.90;;;;;;5092563;28;20027;-78
2021/03/29 03:20:19;;;;;;;5.22;3.80;;;7.20;99.90;;;;;;5092579;28;20036;-78
2021/03/29 03:23:08;;;;;;;6.10;4.38;;;7.20;99.90;;;;;;5091933;28;20031;-78
2021/03/29 03:25:35;;;;;;;6.30;3.95;;;7.20;99.90;;;;;;5092133;28;20064;-78
2021/03/29 03:28:07;;;;;;;5.88;3.90;;;7.30;99.90;;;;;;5092479;28;20049;-78
2021/03/29 03:30:36;;;;;;;5.05;3.78;;;7.20;99.90;;;;;;5091993;28;20024;-78
2021/03/29 03:33:03;;;;;;;6.80;4.20;;;7.30;99.90;;;;;;5092301;28;20020;-78
2021/03/29 03:35:29;;;;;;;5.72;4.15;;;7.10;99.90;;;;;;5083458;28;20004;-78
2021/03/29 03:38:01;;;;;;;6.53;4.10;;;7.60;99.90;;;;;;5084726;28;20028;-78
2021/03/29 03:40:28;;;;;;;9.13;4.20;;;7.20;99.90;;;;;;5091916;28;20505;-78
2021/03/29 03:42:59;;;;;;;7.30;4.13;;;7.20;99.90;;;;;;5076085;28;20081;-78
2021/03/29 03:45:29;;;;;;;4.72;3.65;;;7.70;99.90;;;;;;5084342;28;20012;-78
2021/03/29 03:47:56;;;;;;;5.40;3.65;;;7.50;99.90;;;;;;5084529;28;20016;-78
2021/03/29 03:50:24;;;;;;;5.95;4.10;;;7.20;99.90;;;;;;5076360;28;20017;-78
2021/03/29 03:52:51;;;;;;;7.72;4.18;;;7.30;99.90;;;;;;5091438;28;20016;-78
2021/03/29 03:55:17;;;;;;;6.32;4.28;;;7.30;99.90;;;;;;5091813;28;20038;-78
2021/03/29 03:57:44;;;;;;;5.45;4.22;;;7.80;99.90;;;;;;5080471;28;20024;-78
2021/03/29 04:00:15;;;;;;;6.45;3.83;;;7.30;99.90;;;;;;5102056;28;20024;-78
2021/03/29 04:02:41;;;;;;;4.63;3.85;;;7.20;99.90;;;;;;5089853;28;20084;-78
2021/03/29 04:05:12;;;;;;;6.63;3.70;;;7.30;99.90;;;;;;5077324;28;20012;-78
2021/03/29 04:07:39;;;;;;;5.25;3.90;;;7.30;99.90;;;;;;5081045;28;20043;-78
2021/03/29 04:10:36;;;;;;;7.55;4.47;;;7.30;99.90;;;;;;5085268;28;20433;-78
2021/03/29 04:13:03;;;;;;;4.80;3.88;;;7.20;99.90;;;;;;5091546;28;20044;-78
2021/03/29 04:15:28;;;;;;;5.18;4.65;;;7.20;99.90;;;;;;5083999;28;20055;-78
2021/03/29 04:17:54;;;;;;;6.95;4.53;;;7.20;99.90;;;;;;5083522;28;20055;-78
2021/03/29 04:20:20;;;;;;;7.63;4.57;;;7.20;99.90;;;;;;5091619;28;20055;-78
2021/03/29 04:22:45;;;;;;;5.45;4.13;;;7.20;99.90;;;;;;5091560;28;20040;-78
2021/03/29 04:25:12;;;;;;;6.53;4.15;;;7.20;99.90;;;;;;5092535;28;20052;-78
2021/03/29 04:27:38;;;;;;;7.85;3.65;;;7.20;99.90;;;;;;5092449;28;20024;-78
2021/03/29 04:30:07;;;;;;;5.72;3.97;;;7.20;99.90;;;;;;5092338;28;20027;-78
2021/03/29 04:32:33;;;;;;;6.85;4.30;;;7.20;99.90;;;;;;5075871;28;20031;-78
2021/03/29 04:34:58;;;;;;;6.00;4.38;;;7.10;99.90;;;;;;5092248;28;20387;-78
2021/03/29 04:37:24;;;;;;;5.32;4.35;;;7.20;99.90;;;;;;5085420;28;20036;-78
2021/03/29 04:39:51;;;;;;;7.10;4.32;;;7.20;99.90;;;;;;5084464;28;20111;-78
2021/03/29 04:42:17;;;;;;;9.77;3.95;;;7.40;99.90;;;;;;5078229;28;20029;-78
2021/03/29 04:44:43;;;;;;;7.07;4.43;;;7.30;99.90;;;;;;5089674;28;20392;-78
2021/03/29 04:47:08;;;;;;;7.25;4.80;;;7.20;99.90;;;;;;5088283;28;20027;-78
2021/03/29 04:49:35;;;;;;;4.38;3.90;;;7.50;99.90;;;;;;5072580;28;20117;-78
2021/03/29 04:52:04;;;;;;;6.30;4.05;;;7.40;99.90;;;;;;5083728;28;20497;-78
2021/03/29 04:54:29;;;;;;;7.95;4.32;;;7.40;99.90;;;;;;5077036;28;20031;-78
2021/03/29 04:56:55;;;;;;;5.38;4.07;;;7.80;99.90;;;;;;5093641;28;20078;-78
2021/03/29 04:59:22;;;;;;;7.90;4.72;;;7.90;99.90;;;;;;5095665;28;20024;-78
2021/03/29 05:01:48;;;;;;;6.70;4.50;;;7.60;99.90;;;;;;5095770;28;20451;-78
2021/03/29 05:04:14;;;;;;;11.15;4.97;;;7.70;99.90;;;;;;5094515;28;20032;-78
2021/03/29 05:06:40;;;;;;;8.70;4.60;;;7.50;99.90;;;;;;5095801;28;20024;-78
2021/03/29 05:09:07;;;;;;;5.50;4.43;;;8.10;99.90;;;;;;5092198;28;20070;-78
2021/03/29 05:14:15;;;;;;;7.28;4.65;;;7.60;99.90;;;;;;5095613;28;20043;-78
2021/03/29 05:16:44;;;;;;;7.80;4.95;;;7.70;99.90;;;;;;5096093;28;20020;-78
2021/03/29 05:19:10;;;;;;;5.80;4.53;;;7.60;99.90;;;;;;5095339;28;20071;-78
2021/03/29 05:21:37;;;;;;;6.72;4.45;;;8.10;99.90;;;;;;5096020;28;20043;-78
2021/03/29 05:24:04;;;;;;;5.75;4.25;;;7.70;99.90;;;;;;5095541;28;20472;-78
2021/03/29 05:26:30;;;;;;;6.38;4.25;;;7.70;99.90;;;;;;5095976;28;20020;-78
2021/03/29 05:28:55;;;;;;;6.50;4.25;;;7.70;99.90;;;;;;5095594;28;20038;-78
2021/03/29 05:31:21;;;;;;;6.40;5.07;;;8.10;99.90;;;;;;5095933;28;20369;-78
2021/03/29 05:33:47;;;;;;;7.40;4.53;;;7.80;99.90;;;;;;5095549;28;20095;-78
2021/03/29 05:36:13;;;;;;;7.55;4.55;;;7.90;99.90;;;;;;5095299;28;20385;-78
2021/03/29 05:38:40;;;;;;;7.57;4.35;;;7.70;99.90;;;;;;5095665;28;20041;-78
2021/03/29 05:41:06;;;;;;;7.20;4.38;;;7.70;99.90;;;;;;5095130;28;20480;-78
2021/03/29 05:43:32;;;;;;;6.20;4.28;;;7.90;99.90;;;;;;5095601;28;20069;-78
2021/03/29 05:45:58;;;;;;;7.90;5.00;;;8.00;99.90;;;;;;5094146;28;20027;-78
2021/03/29 05:48:24;;;;;;;10.15;4.88;;;7.80;99.90;;;;;;5094335;28;20095;-78
2021/03/29 05:50:50;;;;;;;6.60;4.47;;;8.10;99.90;;;;;;5098336;28;20111;-79
2021/03/29 05:53:15;;;;;;;5.25;3.95;;;8.00;99.90;;;;;;5101581;28;20449;-78
2021/03/29 05:55:42;;;;;;;8.10;4.68;;;8.00;99.90;;;;;;5104919;28;20084;-78
2021/03/29 05:58:31;;;;;;;11.50;5.15;;;8.10;99.90;;;;;;5094838;28;20054;-78
2021/03/29 06:00:55;;;;;;;11.77;5.30;;;8.10;99.90;;;;;;5107381;28;20023;-78
2021/03/29 06:03:34;;;;;;;6.65;4.85;;;8.10;99.90;;;;;;5093602;28;20046;-78
2021/03/29 06:06:19;;;;;;;7.95;4.65;;;8.20;99.90;;;;;;5096489;28;20035;-78
2021/03/29 06:08:47;;;;;;;8.20;4.80;;;8.20;99.90;;;;;;5092330;28;20020;-78
2021/03/29 06:11:31;;;;;;;8.73;4.57;;;8.50;99.90;;;;;;5093954;28;20081;-78
2021/03/29 06:14:06;;;;;;;8.10;4.45;;;8.20;99.90;;;;;;5103218;28;20165;-78
2021/03/29 06:16:32;;;;;;;6.50;4.75;;;8.60;99.90;;;;;;5093591;28;20524;-78
2021/03/29 06:18:57;;;;;;;6.82;4.82;;;8.40;99.90;;;;;;5093051;28;20032;-78
2021/03/29 06:21:23;;;;;;;5.15;4.18;;;8.50;99.90;;;;;;5096268;28;20452;-78
2021/03/29 06:23:59;;;;;;;7.80;4.78;;;8.60;99.90;;;;;;5105153;28;20479;-78
2021/03/29 06:26:32;;;;;;;6.63;4.57;;;8.60;99.90;;;;;;5095194;28;20035;-78
2021/03/29 06:28:58;;;;;;;7.57;4.45;;;8.60;99.90;;;;;;5093775;28;20383;-78
2021/03/29 06:31:33;;;;;;;11.70;4.70;;;8.70;99.90;;;;;;5093140;28;20016;-78
2021/03/29 06:34:01;;;;;;;9.05;5.03;;;8.80;99.90;;;;;;5093444;28;20097;-78
2021/03/29 06:36:33;;;;;;;6.43;4.45;;;8.80;99.90;;;;;;5093611;28;20016;-78
2021/03/29 06:39:12;;;;;;;7.93;4.90;;;8.80;99.90;;;;;;5092066;28;20089;-78
2021/03/29 06:41:39;;;;;;;8.60;4.82;;;9.00;99.90;;;;;;5078642;28;20016;-80
2021/03/29 06:44:05;;;;;;;7.70;4.70;;;9.00;99.90;;;;;;5093267;28;20028;-78
2021/03/29 06:46:31;;;;;;;8.75;4.80;;;9.10;99.90;;;;;;5093152;28;20031;-78
2021/03/29 06:48:59;;;;;;;7.25;4.60;;;9.10;99.90;;;;;;5093179;28;20027;-78
2021/03/29 06:51:28;;;;;;;10.23;4.85;;;9.60;99.90;;;;;;5093009;28;20020;-78
2021/03/29 06:54:06;;;;;;;8.00;4.70;;;9.70;99.90;;;;;;5093359;28;20070;-78
2021/03/29 06:56:39;;;;;;;11.48;4.72;;;9.50;99.90;;;;;;5093246;28;20012;-78
2021/03/29 06:59:04;;;;;;;7.20;4.65;;;9.50;99.90;;;;;;5092947;28;20032;-78
2021/03/29 07:01:32;;;;;;;11.20;4.80;;;9.60;99.90;;;;;;5092788;28;20023;-78
2021/03/29 07:03:58;;;;;;;9.43;4.93;;;9.70;99.90;;;;;;5093207;28;20031;-78
2021/03/29 07:06:28;;;;;;;7.45;4.80;;;9.80;99.90;;;;;;5093406;28;20050;-78
2021/03/29 07:09:07;;;;;;;10.63;5.18;;;9.90;99.90;;;;;;5093100;28;20031;-78
2021/03/29 07:11:34;;;;;;;7.07;4.63;;;10.00;99.90;;;;;;5076920;28;20529;-78
2021/03/29 07:14:02;;;;;;;8.23;5.10;;;10.20;99.90;;;;;;5093039;28;20031;-78
2021/03/29 07:16:28;;;;;;;8.95;4.53;;;10.30;99.90;;;;;;5092825;28;20031;-78
2021/03/29 07:18:59;;;;;;;7.93;4.90;;;10.30;99.90;;;;;;5092993;28;20024;-78
2021/03/29 07:21:26;;;;;;;7.15;4.40;;;10.40;99.90;;;;;;5092963;28;20054;-78
2021/03/29 07:23:53;;;;;;;5.53;4.63;;;10.60;99.90;;;;;;5092863;28;20502;-79
2021/03/29 07:26:55;;;;;;;10.77;5.75;;;10.80;99.90;;;;;;5092638;28;20032;-80
2021/03/29 07:29:24;;;;;;;9.65;5.10;;;11.00;99.90;;;;;;5092178;28;20020;-78
2021/03/29 07:31:55;;;;;;;7.97;4.63;;;11.10;99.90;;;;;;5092756;28;20020;-82
2021/03/29 07:34:43;;;;;;;9.00;5.30;;;11.20;99.90;;;;;;5091401;28;20396;-82
2021/03/29 07:37:33;;;;;;;8.43;4.95;;;11.20;99.90;;;;;;5092448;28;20345;-78
2021/03/29 07:40:02;;;;;;;8.68;5.30;;;11.20;99.90;;;;;;5079860;28;20103;-78
2021/03/29 07:42:28;;;;;;;10.63;5.60;;;11.30;99.90;;;;;;5092533;28;20093;-79
2021/03/29 07:44:56;;;;;;;10.20;6.28;;;11.40;99.90;;;;;;5092308;28;20051;-80
2021/03/29 07:47:42;;;;;;;7.25;5.35;;;11.50;99.90;;;;;;5092105;28;20031;-80
2021/03/29 07:50:10;;;;;;;11.45;6.00;;;11.50;99.90;;;;;;5092384;28;20024;-78
2021/03/29 07:52:40;;;;;;;9.15;5.70;;;11.50;99.90;;;;;;5092370;28;20027;-79
2021/03/29 07:55:28;;;;;;;10.40;7.07;;;11.60;99.90;;;;;;5092243;28;20020;-79
2021/03/29 07:57:53;;;;;;;10.95;5.93;;;11.60;99.90;;;;;;5078147;28;20048;-79
2021/03/29 08:00:25;;;;;;;8.63;5.57;;;11.70;99.90;;;;;;5082493;28;20056;-79
2021/03/29 08:03:10;;;;;;;10.32;6.00;;;11.80;99.90;;;;;;5085944;28;20024;-79
2021/03/29 08:05:41;;;;;;;8.02;5.55;;;12.00;99.90;;;;;;5091735;28;20020;-80
2021/03/29 08:08:30;;;;;;;8.82;6.00;;;12.00;99.90;;;;;;5091997;28;20017;-82
2021/03/29 08:11:05;;;;;;;10.35;5.68;;;12.00;99.90;;;;;;5077676;28;20027;-80
2021/03/29 08:13:39;;;;;;;11.68;5.90;;;12.10;99.90;;;;;;5074316;28;20031;-79
2021/03/29 08:16:09;;;;;;;8.90;5.40;;;12.20;99.90;;;;;;5090875;28;20020;-80
2021/03/29 08:19:14;;;;;;;11.25;5.18;;;12.40;99.90;;;;;;5080595;28;20032;-79
2021/03/29 08:22:10;;;;;;;9.95;5.68;;;12.50;99.90;;;;;;5088603;28;20036;-79
2021/03/29 08:24:50;;;;;;;9.50;5.43;;;12.70;99.90;;;;;;5083309;28;20047;-79
2021/03/29 08:27:19;;;;;;;10.80;6.00;;;12.80;99.90;;;;;;5090853;28;20077;-79
2021/03/29 08:29:50;;;;;;;15.23;8.93;;;12.90;99.90;;;;;;5075888;28;20020;-80
2021/03/29 08:32:21;;;;;;;11.88;7.13;;;13.00;99.90;;;;;;5093612;28;20016;-80
2021/03/29 08:35:00;;;;;;;14.48;6.22;;;13.10;99.90;;;;;;5083078;28;20020;-80
2021/03/29 08:37:38;;;;;;;7.65;5.50;;;13.30;99.90;;;;;;5092212;28;20028;-80
2021/03/29 08:40:22;;;;;;;8.77;5.28;;;13.40;99.90;;;;;;5075755;28;20020;-80
2021/03/29 08:42:51;;;;;;;11.50;5.85;;;13.60;99.90;;;;;;5088250;28;20035;-79
2021/03/29 08:45:24;;;;;;;7.22;5.00;;;13.70;99.90;;;;;;5078980;28;20059;-80
2021/03/29 08:47:53;;;;;;;9.95;4.80;;;13.80;99.90;;;;;;5080199;28;20051;-78
2021/03/29 08:50:28;;;;;;;9.35;5.20;;;13.90;99.90;;;;;;5095163;28;20022;-79
2021/03/29 08:53:02;;;;;;;7.18;4.00;;;14.20;99.90;;;;;;5095572;28;20045;-78
2021/03/29 08:55:33;;;;;;;5.90;4.47;;;14.20;99.90;;;;;;5093873;28;20028;-79
2021/03/29 08:57:59;;;;;;;7.05;4.03;;;14.20;99.90;;;;;;5080496;28;20023;-78
2021/03/29 09:00:28;;;;;;;7.90;4.22;;;14.40;99.90;;;;;;5086233;28;20055;-78
2021/03/29 09:02:54;;;;;;;9.27;4.65;;;14.60;99.90;;;;;;5091153;28;20512;-78
2021/03/29 09:05:23;;;;;;;8.15;4.47;;;14.70;99.90;;;;;;5091645;28;20024;-80
2021/03/29 09:07:51;;;;;;;7.55;3.75;;;14.70;99.90;;;;;;5095299;28;20016;-79
2021/03/29 09:10:34;;;;;;;9.68;4.07;;;14.80;99.90;;;;;;5094970;28;20012;-78
2021/03/29 09:13:05;;;;;;;8.63;4.10;;;14.90;99.90;;;;;;5081039;28;20484;-78
2021/03/29 09:15:45;;;;;;;8.90;4.32;;;15.00;99.90;;;;;;5076569;28;20536;-78
2021/03/29 09:18:16;;;;;;;8.32;3.75;;;15.20;99.90;;;;;;5094700;28;20484;-79
2021/03/29 09:20:45;;;;;;;10.38;3.90;;;15.40;99.90;;;;;;5094617;28;20048;-78
2021/03/29 09:23:12;;;;;;;7.22;3.92;;;15.40;99.90;;;;;;5079672;28;20028;-78
2021/03/29 09:25:43;;;;;;;6.50;3.90;;;15.60;99.90;;;;;;5092822;28;20047;-78
2021/03/29 09:30:58;;;;;;;5.40;3.42;;;16.00;99.90;;;;;;5094303;28;20012;-79
2021/03/29 09:33:24;;;;;;;6.35;3.50;;;16.20;99.90;;;;;;5094526;28;20051;-78
2021/03/29 09:35:52;;;;;;;7.07;3.53;;;16.50;99.90;;;;;;5094546;28;20017;-78
2021/03/29 09:38:38;;;;;;;6.10;3.30;;;16.70;99.90;;;;;;5094661;28;20031;-78
2021/03/29 09:41:15;;;;;;;5.82;3.25;;;17.20;99.90;;;;;;5088010;28;20020;-78
2021/03/29 09:43:43;;;;;;;5.82;3.03;;;17.60;99.90;;;;;;5094036;28;20046;-80
2021/03/29 09:46:08;;;;;;;5.60;2.97;;;19.70;99.90;;;;;;5093327;28;20019;-80
2021/03/29 09:48:34;;;;;;;4.75;3.20;;;23.40;99.90;;;;;;5094096;28;20498;-79
2021/03/29 09:51:00;;;;;;;5.55;3.25;;;27.60;99.90;;;;;;5094346;28;20043;-80
2021/03/29 09:53:32;;;;;;;4.38;3.05;;;29.80;99.90;;;;;;5093023;28;20032;-79
2021/03/29 09:56:03;;;;;;;5.03;3.40;;;31.40;99.90;;;;;;5086763;28;20024;-79
2021/03/29 09:58:36;;;;;;;4.85;3.28;;;32.80;99.90;;;;;;5092784;28;20502;-80
2021/03/29 10:01:19;;;;;;;4.65;3.35;;;32.90;99.90;;;;;;5087159;28;20069;-80
2021/03/29 10:03:55;;;;;;;6.25;3.35;;;32.20;99.90;;;;;;5092479;28;20055;-80
2021/03/29 10:06:23;;;;;;;4.97;3.80;;;34.10;99.90;;;;;;5093930;28;20054;-80
2021/03/29 10:08:57;;;;;;;6.35;3.53;;;33.80;99.90;;;;;;5095204;28;20034;-81
2021/03/29 10:11:23;;;;;;;5.25;3.70;;;33.70;99.90;;;;;;5095807;28;20024;-81
2021/03/29 10:13:49;;;;;;;5.68;3.45;;;35.10;99.90;;;;;;5093529;28;20019;-81
2021/03/29 10:16:26;;;;;;;7.35;3.83;;;35.60;99.90;;;;;;5093725;28;20012;-82
2021/03/29 10:19:09;;;;;;;3.92;3.33;;;34.50;99.90;;;;;;5099966;28;20034;-81
2021/03/29 10:22:14;;;;;;;6.03;3.72;;;35.10;99.90;;;;;;5098309;28;20020;-81
2021/03/29 10:25:11;;;;;;;9.05;4.07;;;35.10;99.90;;;;;;5090741;28;20377;-81
2021/03/29 10:27:51;;;;;;;4.00;3.47;;;36.00;99.90;;;;;;5092359;28;20513;-81
2021/03/29 10:30:20;;;;;;;4.90;3.45;;;36.50;99.90;;;;;;5093893;28;20051;-82
2021/03/29 10:32:54;;;;;;;4.82;4.00;;;37.30;99.90;;;;;;5093469;28;20051;-81
2021/03/29 10:35:21;;;;;;;5.53;3.58;;;36.20;99.90;;;;;;5093817;28;20012;-81
2021/03/29 10:37:47;;;;;;;5.68;3.47;;;37.30;99.90;;;;;;5091794;28;20020;-81
2021/03/29 10:40:14;;;;;;;5.45;3.95;;;38.30;99.90;;;;;;5080087;28;20055;-81
2021/03/29 10:42:41;;;;;;;5.30;3.30;;;38.40;99.90;;;;;;5093907;28;20024;-81
2021/03/29 10:45:10;;;;;;;6.60;3.28;;;39.00;99.90;;;;;;5093395;28;20024;-81
2021/03/29 10:47:37;;;;;;;4.10;3.10;;;39.80;99.90;;;;;;5093367;28;20024;-80
2021/03/29 10:50:04;;;;;;;3.63;3.13;;;38.90;99.90;;;;;;5093208;28;20031;-80
2021/03/29 10:52:30;;;;;;;4.97;3.15;;;38.90;99.90;;;;;;5092445;28;20388;-80
2021/03/29 10:54:55;;;;;;;4.07;3.47;;;39.80;99.90;;;;;;5092679;28;20028;-80
2021/03/29 10:57:21;;;;;;;4.38;3.00;;;37.70;99.90;;;;;;5093541;28;20416;-80
2021/03/29 10:59:46;;;;;;;4.25;3.42;;;37.80;99.90;;;;;;5100552;28;20125;-81
2021/03/29 11:02:13;;;;;;;4.35;3.25;;;38.80;99.90;;;;;;5092021;28;20094;-81
2021/03/29 11:04:39;;;;;;;4.80;3.60;;;39.40;99.90;;;;;;5091336;28;20109;-81
2021/03/29 11:07:04;;;;;;;5.85;3.17;;;39.80;99.90;;;;;;5092396;28;20492;-81
2021/03/29 11:09:30;;;;;;;5.88;2.90;;;39.60;99.90;;;;;;5092520;28;20031;-81
2021/03/29 11:11:55;;;;;;;3.88;2.80;;;40.80;99.90;;;;;;5091730;28;20028;-81
2021/03/29 11:14:22;;;;;;;5.57;2.80;;;41.00;99.90;;;;;;5092019;28;20024;-84
2021/03/29 11:16:54;;;;;;;4.22;2.70;;;40.60;99.90;;;;;;5090512;28;20472;-84
2021/03/29 11:19:21;;;;;;;3.15;2.35;;;41.10;99.90;;;;;;5091746;28;20048;-81
2021/03/29 11:21:50;;;;;;;3.90;2.67;;;40.00;99.90;;;;;;5091675;28;20032;-80
2021/03/29 11:24:15;;;;;;;4.88;3.03;;;39.10;99.90;;;;;;5092289;28;20441;-80
2021/03/29 11:26:41;;;;;;;3.22;2.50;;;40.50;99.90;;;;;;5076789;28;20107;-81
2021/03/29 11:29:08;;;;;;;3.55;2.42;;;40.40;99.90;;;;;;5091704;28;20146;-81
2021/03/29 11:31:37;;;;;;;3.10;2.42;;;40.60;99.90;;;;;;5091244;28;20361;-83
2021/03/29 11:34:03;;;;;;;4.07;2.30;;;40.70;99.90;;;;;;5092235;28;20035;-83
2021/03/29 11:36:29;;;;;;;3.58;2.22;;;40.30;99.90;;;;;;5092327;28;20477;-82
2021/03/29 11:38:56;;;;;;;3.10;2.47;;;40.10;99.90;;;;;;5075571;28;20104;-82
2021/03/29 11:41:21;;;;;;;3.63;2.50;;;40.80;99.90;;;;;;5092199;28;20011;-82
2021/03/29 11:43:48;;;;;;;5.03;2.20;;;38.50;99.90;;;;;;5084555;28;20025;-82
2021/03/29 11:46:13;;;;;;;3.22;2.40;;;38.10;99.90;;;;;;5083784;28;20468;-82
2021/03/29 11:48:39;;;;;;;4.72;2.70;;;40.10;99.90;;;;;;5077310;28;20062;-82
2021/03/29 11:51:05;;;;;;;3.28;2.53;;;39.90;99.90;;;;;;5088346;28;20487;-82
2021/03/29 11:53:31;;;;;;;3.40;2.20;;;41.20;99.90;;;;;;5077810;28;20526;-82
2021/03/29 11:55:58;;;;;;;3.95;2.80;;;42.10;99.90;;;;;;5083225;28;20044;-82
2021/03/29 11:58:24;;;;;;;3.65;2.30;;;39.00;99.90;;;;;;5084708;28;20040;-82
2021/03/29 12:00:59;;;;;;;3.88;2.80;;;39.40;99.90;;;;;;5075787;28;20035;-82
2021/03/29 12:03:52;;;;;;;3.40;2.20;;;40.40;99.90;;;;;;5087794;28;20074;-83
2021/03/29 12:06:17;;;;;;;3.63;2.67;;;40.80;99.90;;;;;;5081420;28;20063;-83
2021/03/29 12:13:55;;;;;;;3.95;2.70;;;38.20;99.90;;;;;;5080467;28;20149;-82
2021/03/29 12:16:22;;;;;;;2.83;2.53;;;38.10;99.90;;;;;;5080121;28;20480;-82
2021/03/29 12:18:51;;;;;;;4.15;2.30;;;38.40;99.90;;;;;;5087471;28;20055;-82
2021/03/29 12:21:28;;;;;;;4.32;2.70;;;39.00;99.90;;;;;;5089321;28;20454;-83
2021/03/29 12:24:16;;;;;;;5.43;2.70;;;38.00;99.90;;;;;;5091651;28;20504;-82
2021/03/29 12:26:42;;;;;;;3.35;2.58;;;37.90;99.90;;;;;;5077112;28;20027;-82
2021/03/29 12:29:13;;;;;;;3.47;2.45;;;37.50;99.90;;;;;;5089540;28;20519;-82
2021/03/29 12:31:40;;;;;;;3.70;2.50;;;38.60;99.90;;;;;;5091763;28;20115;-82
2021/03/29 12:34:07;;;;;;;3.45;2.55;;;38.50;99.90;;;;;;5081963;28;20078;-82
2021/03/29 12:36:38;;;;;;;4.22;2.70;;;38.30;99.90;;;;;;5084952;28;20020;-83
2021/03/29 12:39:15;;;;;;;3.85;2.55;;;37.30;99.90;;;;;;5074807;28;20548;-82
2021/03/29 12:41:45;;;;;;;2.88;2.45;;;37.80;99.90;;;;;;5085925;28;20024;-82
2021/03/29 12:44:18;;;;;;;3.08;2.33;;;38.00;99.90;;;;;;5087425;28;20522;-83
2021/03/29 12:46:48;;;;;;;2.70;2.42;;;38.70;99.90;;;;;;5086392;28;20016;-82
2021/03/29 12:49:15;;;;;;;3.40;2.10;;;37.90;99.90;;;;;;5090506;28;20053;-83
2021/03/29 12:51:43;;;;;;;3.05;2.38;;;37.50;99.90;;;;;;5091758;28;20100;-82
2021/03/29 12:54:14;;;;;;;4.82;2.30;;;36.70;99.90;;;;;;5091252;28;20361;-82
2021/03/29 12:56:43;;;;;;;4.47;2.70;;;35.60;99.90;;;;;;5091883;28;20042;-82
2021/03/29 12:59:09;;;;;;;4.13;2.50;;;36.00;99.90;;;;;;5089887;28;20484;-82
2021/03/29 13:01:37;;;;;;;3.67;2.60;;;36.70;99.90;;;;;;5076108;28;20012;-83
2021/03/29 13:04:12;;;;;;;3.30;2.25;;;35.20;99.90;;;;;;5081303;28;20507;-83
2021/03/29 13:09:37;;;;;;;4.53;2.55;;;34.90;99.90;;;;;;5074719;28;20035;-82
2021/03/29 13:11:58;;;;;;;3.28;2.10;;;35.50;99.90;;;;;;5083609;28;20036;-82
2021/03/29 13:14:24;;;;;;;3.03;2.20;;;34.00;99.90;;;;;;5082794;28;20103;-82
2021/03/29 13:16:51;;;;;;;3.67;2.20;;;33.50;99.90;;;;;;5092227;28;20023;-83
2021/03/29 13:19:16;;;;;;;2.63;2.00;;;34.20;99.90;;;;;;5094001;28;20036;-83